sensor_id;sensor_type;location;lat;lon;timestamp;P1;durP1;ratioP1;P2;durP2;ratioP2
14125;SDS011;7141;49.484;11.242;2023-12-22T00:00:04;6.80;;;1.73;;
14125;SDS011;7141;49.484;11.242;2023-12-22T00:02:30;4.03;;;1.30;;
14125;SDS011;7141;49.484;11.242;2023-12-22T00:04:56;8.27;;;1.80;;
14125;SDS011;7141;49.484;11.242;2023-12-22T00:07:22;8.23;;;2.33;;
14125;SDS011;7141;49.484;11.242;2023-12-22T00:09:48;8.93;;;1.80;;
14125;SDS011;7141;49.484;11.242;2023-12-22T00:12:14;5.93;;;1.70;;
14125;SDS011;7141;49.484;11.242;2023-12-22T00:14:40;5.33;;;1.50;;
14125;SDS011;7141;49.484;11.242;2023-12-22T00:17:07;9.83;;;2.10;;
14125;SDS011;7141;49.484;11.242;2023-12-22T00:19:33;9.27;;;1.60;;
14125;SDS011;7141;49.484;11.242;2023-12-22T00:21:59;3.57;;;1.67;;
14125;SDS011;7141;49.484;11.242;2023-12-22T00:24:25;4.50;;;2.00;;
14125;SDS011;7141;49.484;11.242;2023-12-22T00:26:51;9.63;;;1.83;;
14125;SDS011;7141;49.484;11.242;2023-12-22T00:29:17;5.57;;;1.67;;
14125;SDS011;7141;49.484;11.242;2023-12-22T00:31:43;5.20;;;1.53;;
14125;SDS011;7141;49.484;11.242;2023-12-22T00:34:09;4.73;;;1.30;;
14125;SDS011;7141;49.484;11.242;2023-12-22T00:36:35;3.90;;;1.17;;
14125;SDS011;7141;49.484;11.242;2023-12-22T00:39:00;6.90;;;1.40;;
14125;SDS011;7141;49.484;11.242;2023-12-22T00:41:26;6.37;;;1.63;;
14125;SDS011;7141;49.484;11.242;2023-12-22T00:43:52;8.13;;;1.97;;
14125;SDS011;7141;49.484;11.242;2023-12-22T00:46:18;7.20;;;1.60;;
14125;SDS011;7141;49.484;11.242;2023-12-22T00:48:45;10.10;;;2.10;;
14125;SDS011;7141;49.484;11.242;2023-12-22T00:51:11;7.37;;;1.93;;
14125;SDS011;7141;49.484;11.242;2023-12-22T00:53:37;7.23;;;1.63;;
14125;SDS011;7141;49.484;11.242;2023-12-22T00:56:03;9.20;;;1.90;;
14125;SDS011;7141;49.484;11.242;2023-12-22T00:58:29;8.13;;;2.53;;
14125;SDS011;7141;49.484;11.242;2023-12-22T01:00:55;5.90;;;2.00;;
14125;SDS011;7141;49.484;11.242;2023-12-22T01:03:21;5.63;;;1.80;;
14125;SDS011;7141;49.484;11.242;2023-12-22T01:05:47;6.63;;;2.00;;
14125;SDS011;7141;49.484;11.242;2023-12-22T01:08:13;8.47;;;1.70;;
14125;SDS011;7141;49.484;11.242;2023-12-22T01:10:39;7.80;;;1.70;;
14125;SDS011;7141;49.484;11.242;2023-12-22T01:13:05;7.77;;;1.90;;
14125;SDS011;7141;49.484;11.242;2023-12-22T01:15:31;11.17;;;2.10;;
14125;SDS011;7141;49.484;11.242;2023-12-22T01:17:57;9.37;;;2.30;;
14125;SDS011;7141;49.484;11.242;2023-12-22T01:20:23;12.03;;;2.40;;
14125;SDS011;7141;49.484;11.242;2023-12-22T01:22:49;10.00;;;2.23;;
14125;SDS011;7141;49.484;11.242;2023-12-22T01:25:15;10.03;;;1.93;;
14125;SDS011;7141;49.484;11.242;2023-12-22T01:27:41;9.77;;;2.13;;
14125;SDS011;7141;49.484;11.242;2023-12-22T01:30:07;11.87;;;2.17;;
14125;SDS011;7141;49.484;11.242;2023-12-22T01:32:33;11.03;;;2.07;;
14125;SDS011;7141;49.484;11.242;2023-12-22T01:35:01;9.30;;;2.20;;
14125;SDS011;7141;49.484;11.242;2023-12-22T01:37:31;10.57;;;2.17;;
14125;SDS011;7141;49.484;11.242;2023-12-22T01:39:57;9.33;;;2.10;;
14125;SDS011;7141;49.484;11.242;2023-12-22T01:42:23;12.37;;;2.23;;
14125;SDS011;7141;49.484;11.242;2023-12-22T01:44:49;12.33;;;2.03;;
14125;SDS011;7141;49.484;11.242;2023-12-22T01:47:16;10.47;;;2.07;;
14125;SDS011;7141;49.484;11.242;2023-12-22T01:49:42;11.10;;;2.10;;
14125;SDS011;7141;49.484;11.242;2023-12-22T01:52:08;10.67;;;1.90;;
14125;SDS011;7141;49.484;11.242;2023-12-22T01:54:34;9.07;;;2.03;;
14125;SDS011;7141;49.484;11.242;2023-12-22T01:57:00;7.63;;;1.93;;
14125;SDS011;7141;49.484;11.242;2023-12-22T01:59:26;8.83;;;2.00;;
14125;SDS011;7141;49.484;11.242;2023-12-22T02:01:55;5.53;;;1.70;;
14125;SDS011;7141;49.484;11.242;2023-12-22T02:04:22;5.10;;;1.50;;
14125;SDS011;7141;49.484;11.242;2023-12-22T02:06:48;10.33;;;2.00;;
14125;SDS011;7141;49.484;11.242;2023-12-22T02:09:14;5.60;;;1.90;;
14125;SDS011;7141;49.484;11.242;2023-12-22T02:11:40;5.50;;;1.20;;
14125;SDS011;7141;49.484;11.242;2023-12-22T02:14:06;6.87;;;1.87;;
14125;SDS011;7141;49.484;11.242;2023-12-22T02:16:37;9.53;;;2.00;;
14125;SDS011;7141;49.484;11.242;2023-12-22T02:19:09;7.50;;;1.40;;
14125;SDS011;7141;49.484;11.242;2023-12-22T02:22:00;5.80;;;1.30;;
14125;SDS011;7141;49.484;11.242;2023-12-22T02:24:26;10.33;;;2.03;;
14125;SDS011;7141;49.484;11.242;2023-12-22T02:26:52;3.53;;;1.23;;
14125;SDS011;7141;49.484;11.242;2023-12-22T02:29:19;4.93;;;1.57;;
14125;SDS011;7141;49.484;11.242;2023-12-22T02:31:46;5.53;;;1.20;;
14125;SDS011;7141;49.484;11.242;2023-12-22T02:34:16;4.03;;;1.57;;
14125;SDS011;7141;49.484;11.242;2023-12-22T02:36:44;5.67;;;1.17;;
14125;SDS011;7141;49.484;11.242;2023-12-22T02:39:10;7.10;;;1.90;;
14125;SDS011;7141;49.484;11.242;2023-12-22T02:41:36;5.70;;;1.40;;
14125;SDS011;7141;49.484;11.242;2023-12-22T02:44:02;5.20;;;1.37;;
14125;SDS011;7141;49.484;11.242;2023-12-22T02:46:28;3.23;;;1.20;;
14125;SDS011;7141;49.484;11.242;2023-12-22T02:48:54;4.77;;;1.20;;
14125;SDS011;7141;49.484;11.242;2023-12-22T02:51:20;6.57;;;1.33;;
14125;SDS011;7141;49.484;11.242;2023-12-22T02:53:46;5.00;;;1.47;;
14125;SDS011;7141;49.484;11.242;2023-12-22T02:56:12;6.23;;;1.40;;
14125;SDS011;7141;49.484;11.242;2023-12-22T02:58:38;6.40;;;1.20;;
14125;SDS011;7141;49.484;11.242;2023-12-22T03:01:04;4.50;;;1.40;;
14125;SDS011;7141;49.484;11.242;2023-12-22T03:03:30;4.60;;;1.27;;
14125;SDS011;7141;49.484;11.242;2023-12-22T03:05:56;5.90;;;1.40;;
14125;SDS011;7141;49.484;11.242;2023-12-22T03:08:22;7.47;;;1.37;;
14125;SDS011;7141;49.484;11.242;2023-12-22T03:10:48;3.13;;;1.10;;
14125;SDS011;7141;49.484;11.242;2023-12-22T03:13:14;3.83;;;0.97;;
14125;SDS011;7141;49.484;11.242;2023-12-22T03:15:39;1.50;;;0.80;;
14125;SDS011;7141;49.484;11.242;2023-12-22T03:18:05;2.47;;;0.93;;
14125;SDS011;7141;49.484;11.242;2023-12-22T03:20:31;2.10;;;1.00;;
14125;SDS011;7141;49.484;11.242;2023-12-22T03:22:57;2.07;;;0.70;;
14125;SDS011;7141;49.484;11.242;2023-12-22T03:25:23;4.47;;;1.13;;
14125;SDS011;7141;49.484;11.242;2023-12-22T03:27:49;2.17;;;0.87;;
14125;SDS011;7141;49.484;11.242;2023-12-22T03:30:15;3.90;;;1.13;;
14125;SDS011;7141;49.484;11.242;2023-12-22T03:32:41;1.57;;;0.80;;
14125;SDS011;7141;49.484;11.242;2023-12-22T03:35:07;2.20;;;0.90;;
14125;SDS011;7141;49.484;11.242;2023-12-22T03:37:33;2.50;;;0.80;;
14125;SDS011;7141;49.484;11.242;2023-12-22T03:39:59;2.80;;;0.93;;
14125;SDS011;7141;49.484;11.242;2023-12-22T03:42:25;1.73;;;0.90;;
14125;SDS011;7141;49.484;11.242;2023-12-22T03:44:51;4.00;;;1.07;;
14125;SDS011;7141;49.484;11.242;2023-12-22T03:47:17;2.97;;;0.83;;
14125;SDS011;7141;49.484;11.242;2023-12-22T03:49:43;1.13;;;0.90;;
14125;SDS011;7141;49.484;11.242;2023-12-22T03:52:09;2.03;;;0.83;;
14125;SDS011;7141;49.484;11.242;2023-12-22T03:54:35;2.47;;;0.80;;
14125;SDS011;7141;49.484;11.242;2023-12-22T03:57:01;2.53;;;0.73;;
14125;SDS011;7141;49.484;11.242;2023-12-22T03:59:27;2.67;;;0.60;;
14125;SDS011;7141;49.484;11.242;2023-12-22T04:01:53;2.40;;;0.90;;
14125;SDS011;7141;49.484;11.242;2023-12-22T04:04:20;1.70;;;0.80;;
14125;SDS011;7141;49.484;11.242;2023-12-22T04:06:52;4.03;;;0.80;;
14125;SDS011;7141;49.484;11.242;2023-12-22T04:09:18;2.10;;;0.63;;
14125;SDS011;7141;49.484;11.242;2023-12-22T04:11:44;3.77;;;0.87;;
14125;SDS011;7141;49.484;11.242;2023-12-22T04:14:10;6.63;;;0.83;;
14125;SDS011;7141;49.484;11.242;2023-12-22T04:16:36;3.60;;;0.90;;
14125;SDS011;7141;49.484;11.242;2023-12-22T04:19:03;1.97;;;0.80;;
14125;SDS011;7141;49.484;11.242;2023-12-22T04:21:29;1.27;;;0.67;;
14125;SDS011;7141;49.484;11.242;2023-12-22T04:23:55;1.87;;;0.80;;
14125;SDS011;7141;49.484;11.242;2023-12-22T04:26:21;2.27;;;0.90;;
14125;SDS011;7141;49.484;11.242;2023-12-22T04:28:47;2.93;;;0.70;;
14125;SDS011;7141;49.484;11.242;2023-12-22T04:31:13;11.17;;;1.40;;
14125;SDS011;7141;49.484;11.242;2023-12-22T04:33:39;3.33;;;1.17;;
14125;SDS011;7141;49.484;11.242;2023-12-22T04:36:05;3.50;;;1.10;;
14125;SDS011;7141;49.484;11.242;2023-12-22T04:38:31;2.87;;;1.03;;
14125;SDS011;7141;49.484;11.242;2023-12-22T04:40:57;3.07;;;0.70;;
14125;SDS011;7141;49.484;11.242;2023-12-22T04:43:23;4.53;;;0.90;;
14125;SDS011;7141;49.484;11.242;2023-12-22T04:45:49;3.40;;;1.03;;
14125;SDS011;7141;49.484;11.242;2023-12-22T04:48:15;4.37;;;1.10;;
14125;SDS011;7141;49.484;11.242;2023-12-22T04:50:41;2.13;;;0.90;;
14125;SDS011;7141;49.484;11.242;2023-12-22T04:53:07;6.00;;;0.97;;
14125;SDS011;7141;49.484;11.242;2023-12-22T04:55:33;1.63;;;0.90;;
14125;SDS011;7141;49.484;11.242;2023-12-22T04:57:59;2.03;;;1.00;;
14125;SDS011;7141;49.484;11.242;2023-12-22T05:00:25;4.27;;;1.00;;
14125;SDS011;7141;49.484;11.242;2023-12-22T05:02:51;4.37;;;0.97;;
14125;SDS011;7141;49.484;11.242;2023-12-22T05:05:17;2.40;;;1.00;;
14125;SDS011;7141;49.484;11.242;2023-12-22T05:07:43;2.67;;;0.80;;
14125;SDS011;7141;49.484;11.242;2023-12-22T05:10:09;3.20;;;0.80;;
14125;SDS011;7141;49.484;11.242;2023-12-22T05:12:35;6.27;;;1.10;;
14125;SDS011;7141;49.484;11.242;2023-12-22T05:15:01;2.33;;;0.90;;
14125;SDS011;7141;49.484;11.242;2023-12-22T05:17:28;2.30;;;1.00;;
14125;SDS011;7141;49.484;11.242;2023-12-22T05:19:54;5.10;;;1.07;;
14125;SDS011;7141;49.484;11.242;2023-12-22T05:22:19;3.20;;;0.90;;
14125;SDS011;7141;49.484;11.242;2023-12-22T05:24:45;3.77;;;1.17;;
14125;SDS011;7141;49.484;11.242;2023-12-22T05:27:11;2.03;;;0.83;;
14125;SDS011;7141;49.484;11.242;2023-12-22T05:29:37;3.87;;;1.07;;
14125;SDS011;7141;49.484;11.242;2023-12-22T05:32:05;2.10;;;0.97;;
14125;SDS011;7141;49.484;11.242;2023-12-22T05:34:31;4.00;;;0.80;;
14125;SDS011;7141;49.484;11.242;2023-12-22T05:36:57;3.50;;;1.00;;
14125;SDS011;7141;49.484;11.242;2023-12-22T05:39:23;3.30;;;1.00;;
14125;SDS011;7141;49.484;11.242;2023-12-22T05:41:49;5.17;;;1.20;;
14125;SDS011;7141;49.484;11.242;2023-12-22T05:44:15;3.37;;;1.10;;
14125;SDS011;7141;49.484;11.242;2023-12-22T05:46:41;4.27;;;1.10;;
14125;SDS011;7141;49.484;11.242;2023-12-22T05:49:07;4.57;;;0.90;;
14125;SDS011;7141;49.484;11.242;2023-12-22T05:51:36;1.37;;;0.80;;
14125;SDS011;7141;49.484;11.242;2023-12-22T05:54:03;1.00;;;0.90;;
14125;SDS011;7141;49.484;11.242;2023-12-22T05:56:29;3.03;;;1.00;;
14125;SDS011;7141;49.484;11.242;2023-12-22T05:58:55;2.53;;;0.90;;
14125;SDS011;7141;49.484;11.242;2023-12-22T06:01:21;2.93;;;0.90;;
14125;SDS011;7141;49.484;11.242;2023-12-22T06:03:47;1.33;;;0.73;;
14125;SDS011;7141;49.484;11.242;2023-12-22T06:06:13;2.10;;;0.80;;
14125;SDS011;7141;49.484;11.242;2023-12-22T06:08:39;3.20;;;0.90;;
14125;SDS011;7141;49.484;11.242;2023-12-22T06:11:05;3.87;;;0.97;;
14125;SDS011;7141;49.484;11.242;2023-12-22T06:13:31;1.70;;;1.10;;
14125;SDS011;7141;49.484;11.242;2023-12-22T06:15:57;6.60;;;1.27;;
14125;SDS011;7141;49.484;11.242;2023-12-22T06:18:23;4.83;;;1.30;;
14125;SDS011;7141;49.484;11.242;2023-12-22T06:20:50;4.77;;;1.00;;
14125;SDS011;7141;49.484;11.242;2023-12-22T06:23:15;3.40;;;0.90;;
14125;SDS011;7141;49.484;11.242;2023-12-22T06:25:42;3.13;;;0.93;;
14125;SDS011;7141;49.484;11.242;2023-12-22T06:28:08;3.27;;;0.93;;
14125;SDS011;7141;49.484;11.242;2023-12-22T06:30:33;5.73;;;1.40;;
14125;SDS011;7141;49.484;11.242;2023-12-22T06:33:00;1.10;;;0.80;;
14125;SDS011;7141;49.484;11.242;2023-12-22T06:35:26;2.07;;;0.60;;
14125;SDS011;7141;49.484;11.242;2023-12-22T06:37:52;5.17;;;1.10;;
14125;SDS011;7141;49.484;11.242;2023-12-22T06:40:19;3.13;;;1.00;;
14125;SDS011;7141;49.484;11.242;2023-12-22T06:42:45;4.90;;;1.03;;
14125;SDS011;7141;49.484;11.242;2023-12-22T06:45:11;1.00;;;0.67;;
14125;SDS011;7141;49.484;11.242;2023-12-22T06:47:37;3.77;;;1.00;;
14125;SDS011;7141;49.484;11.242;2023-12-22T06:50:03;3.57;;;0.87;;
14125;SDS011;7141;49.484;11.242;2023-12-22T06:52:29;4.13;;;0.90;;
14125;SDS011;7141;49.484;11.242;2023-12-22T06:54:56;2.60;;;1.00;;
14125;SDS011;7141;49.484;11.242;2023-12-22T06:57:22;2.33;;;0.87;;
14125;SDS011;7141;49.484;11.242;2023-12-22T06:59:48;3.87;;;1.00;;
14125;SDS011;7141;49.484;11.242;2023-12-22T07:02:14;0.93;;;0.70;;
14125;SDS011;7141;49.484;11.242;2023-12-22T07:04:59;1.17;;;0.90;;
14125;SDS011;7141;49.484;11.242;2023-12-22T07:07:27;7.87;;;2.27;;
14125;SDS011;7141;49.484;11.242;2023-12-22T07:09:54;1.30;;;0.93;;
14125;SDS011;7141;49.484;11.242;2023-12-22T07:12:20;1.63;;;1.00;;
14125;SDS011;7141;49.484;11.242;2023-12-22T07:14:46;1.13;;;1.07;;
14125;SDS011;7141;49.484;11.242;2023-12-22T07:17:12;1.33;;;1.00;;
14125;SDS011;7141;49.484;11.242;2023-12-22T07:19:38;1.30;;;1.20;;
14125;SDS011;7141;49.484;11.242;2023-12-22T07:22:04;1.57;;;1.33;;
14125;SDS011;7141;49.484;11.242;2023-12-22T07:24:30;4.63;;;1.70;;
14125;SDS011;7141;49.484;11.242;2023-12-22T07:26:56;3.47;;;2.00;;
14125;SDS011;7141;49.484;11.242;2023-12-22T07:29:22;6.67;;;1.77;;
14125;SDS011;7141;49.484;11.242;2023-12-22T07:31:48;5.67;;;2.10;;
14125;SDS011;7141;49.484;11.242;2023-12-22T07:34:14;4.90;;;2.00;;
14125;SDS011;7141;49.484;11.242;2023-12-22T07:36:41;6.40;;;2.60;;
14125;SDS011;7141;49.484;11.242;2023-12-22T07:39:07;4.93;;;2.00;;
14125;SDS011;7141;49.484;11.242;2023-12-22T07:41:34;6.50;;;1.70;;
14125;SDS011;7141;49.484;11.242;2023-12-22T07:44:00;7.37;;;2.30;;
14125;SDS011;7141;49.484;11.242;2023-12-22T07:46:26;11.07;;;2.30;;
14125;SDS011;7141;49.484;11.242;2023-12-22T07:48:53;5.47;;;1.77;;
14125;SDS011;7141;49.484;11.242;2023-12-22T07:51:19;3.37;;;1.80;;
14125;SDS011;7141;49.484;11.242;2023-12-22T07:53:45;3.77;;;2.00;;
14125;SDS011;7141;49.484;11.242;2023-12-22T07:56:11;5.00;;;2.03;;
14125;SDS011;7141;49.484;11.242;2023-12-22T07:58:37;9.17;;;2.20;;
14125;SDS011;7141;49.484;11.242;2023-12-22T08:01:04;5.13;;;1.73;;
14125;SDS011;7141;49.484;11.242;2023-12-22T08:03:30;5.43;;;2.00;;
14125;SDS011;7141;49.484;11.242;2023-12-22T08:05:56;6.93;;;2.03;;
14125;SDS011;7141;49.484;11.242;2023-12-22T08:08:22;7.57;;;2.07;;
14125;SDS011;7141;49.484;11.242;2023-12-22T08:10:48;5.63;;;1.80;;
14125;SDS011;7141;49.484;11.242;2023-12-22T08:13:14;7.03;;;1.73;;
14125;SDS011;7141;49.484;11.242;2023-12-22T08:15:42;5.77;;;1.97;;
14125;SDS011;7141;49.484;11.242;2023-12-22T08:18:08;9.40;;;2.07;;
14125;SDS011;7141;49.484;11.242;2023-12-22T08:20:35;4.10;;;1.30;;
14125;SDS011;7141;49.484;11.242;2023-12-22T08:23:01;5.20;;;2.33;;
14125;SDS011;7141;49.484;11.242;2023-12-22T08:25:27;4.93;;;1.97;;
14125;SDS011;7141;49.484;11.242;2023-12-22T08:27:53;6.63;;;2.70;;
14125;SDS011;7141;49.484;11.242;2023-12-22T08:30:19;4.80;;;1.67;;
14125;SDS011;7141;49.484;11.242;2023-12-22T08:32:45;5.07;;;1.70;;
14125;SDS011;7141;49.484;11.242;2023-12-22T08:35:11;7.07;;;1.77;;
14125;SDS011;7141;49.484;11.242;2023-12-22T08:37:37;6.73;;;1.83;;
14125;SDS011;7141;49.484;11.242;2023-12-22T08:40:03;8.70;;;1.97;;
14125;SDS011;7141;49.484;11.242;2023-12-22T08:42:30;3.47;;;1.57;;
14125;SDS011;7141;49.484;11.242;2023-12-22T08:44:56;2.57;;;1.20;;
14125;SDS011;7141;49.484;11.242;2023-12-22T08:47:22;4.57;;;2.17;;
14125;SDS011;7141;49.484;11.242;2023-12-22T08:49:48;2.83;;;1.50;;
14125;SDS011;7141;49.484;11.242;2023-12-22T08:52:14;4.70;;;1.53;;
14125;SDS011;7141;49.484;11.242;2023-12-22T08:54:40;6.53;;;1.60;;
14125;SDS011;7141;49.484;11.242;2023-12-22T08:57:06;4.87;;;1.60;;
14125;SDS011;7141;49.484;11.242;2023-12-22T08:59:34;6.07;;;1.80;;
14125;SDS011;7141;49.484;11.242;2023-12-22T09:02:00;3.47;;;1.50;;
14125;SDS011;7141;49.484;11.242;2023-12-22T09:04:26;6.77;;;1.77;;
14125;SDS011;7141;49.484;11.242;2023-12-22T09:06:52;4.73;;;2.10;;
14125;SDS011;7141;49.484;11.242;2023-12-22T09:09:18;3.77;;;1.67;;
14125;SDS011;7141;49.484;11.242;2023-12-22T09:11:44;5.90;;;1.60;;
14125;SDS011;7141;49.484;11.242;2023-12-22T09:14:10;7.13;;;1.70;;
14125;SDS011;7141;49.484;11.242;2023-12-22T09:16:36;2.10;;;1.40;;
14125;SDS011;7141;49.484;11.242;2023-12-22T09:19:02;7.00;;;2.00;;
14125;SDS011;7141;49.484;11.242;2023-12-22T09:21:28;4.50;;;1.73;;
14125;SDS011;7141;49.484;11.242;2023-12-22T09:23:54;9.67;;;2.00;;
14125;SDS011;7141;49.484;11.242;2023-12-22T09:26:20;7.93;;;1.40;;
14125;SDS011;7141;49.484;11.242;2023-12-22T09:28:46;4.07;;;1.67;;
14125;SDS011;7141;49.484;11.242;2023-12-22T09:31:13;5.37;;;2.10;;
14125;SDS011;7141;49.484;11.242;2023-12-22T09:33:39;8.80;;;1.80;;
14125;SDS011;7141;49.484;11.242;2023-12-22T09:36:06;6.77;;;2.00;;
14125;SDS011;7141;49.484;11.242;2023-12-22T09:38:32;6.63;;;1.70;;
14125;SDS011;7141;49.484;11.242;2023-12-22T09:40:58;7.93;;;1.67;;
14125;SDS011;7141;49.484;11.242;2023-12-22T09:43:24;7.13;;;1.80;;
14125;SDS011;7141;49.484;11.242;2023-12-22T09:45:50;7.73;;;2.10;;
14125;SDS011;7141;49.484;11.242;2023-12-22T09:48:17;7.40;;;2.43;;
14125;SDS011;7141;49.484;11.242;2023-12-22T09:50:43;9.63;;;1.93;;
14125;SDS011;7141;49.484;11.242;2023-12-22T09:53:10;5.60;;;2.03;;
14125;SDS011;7141;49.484;11.242;2023-12-22T09:55:38;5.27;;;1.70;;
14125;SDS011;7141;49.484;11.242;2023-12-22T09:58:04;9.27;;;1.80;;
14125;SDS011;7141;49.484;11.242;2023-12-22T10:00:31;6.57;;;1.67;;
14125;SDS011;7141;49.484;11.242;2023-12-22T10:02:57;8.17;;;2.00;;
14125;SDS011;7141;49.484;11.242;2023-12-22T10:05:23;8.17;;;2.37;;
14125;SDS011;7141;49.484;11.242;2023-12-22T10:07:49;9.53;;;2.10;;
14125;SDS011;7141;49.484;11.242;2023-12-22T10:10:16;9.97;;;2.50;;
14125;SDS011;7141;49.484;11.242;2023-12-22T10:12:44;7.47;;;2.00;;
14125;SDS011;7141;49.484;11.242;2023-12-22T10:15:11;7.53;;;1.50;;
14125;SDS011;7141;49.484;11.242;2023-12-22T10:17:38;8.83;;;1.50;;
14125;SDS011;7141;49.484;11.242;2023-12-22T10:20:05;5.90;;;1.30;;
14125;SDS011;7141;49.484;11.242;2023-12-22T10:22:31;7.50;;;1.50;;
14125;SDS011;7141;49.484;11.242;2023-12-22T10:24:57;7.23;;;1.33;;
14125;SDS011;7141;49.484;11.242;2023-12-22T10:27:23;3.63;;;1.40;;
14125;SDS011;7141;49.484;11.242;2023-12-22T10:29:50;4.77;;;1.77;;
14125;SDS011;7141;49.484;11.242;2023-12-22T10:32:16;4.33;;;2.07;;
14125;SDS011;7141;49.484;11.242;2023-12-22T10:34:42;8.60;;;1.83;;
14125;SDS011;7141;49.484;11.242;2023-12-22T10:37:09;5.00;;;1.63;;
14125;SDS011;7141;49.484;11.242;2023-12-22T10:39:37;3.17;;;1.47;;
14125;SDS011;7141;49.484;11.242;2023-12-22T10:42:04;5.27;;;1.30;;
14125;SDS011;7141;49.484;11.242;2023-12-22T10:44:30;4.20;;;1.20;;
14125;SDS011;7141;49.484;11.242;2023-12-22T10:46:56;6.23;;;1.70;;
14125;SDS011;7141;49.484;11.242;2023-12-22T10:49:23;3.30;;;1.50;;
14125;SDS011;7141;49.484;11.242;2023-12-22T10:51:49;3.80;;;1.50;;
14125;SDS011;7141;49.484;11.242;2023-12-22T10:54:15;7.93;;;1.60;;
14125;SDS011;7141;49.484;11.242;2023-12-22T10:56:41;3.93;;;1.80;;
14125;SDS011;7141;49.484;11.242;2023-12-22T10:59:11;4.57;;;1.63;;
14125;SDS011;7141;49.484;11.242;2023-12-22T11:01:37;5.30;;;1.10;;
14125;SDS011;7141;49.484;11.242;2023-12-22T11:04:05;6.63;;;1.23;;
14125;SDS011;7141;49.484;11.242;2023-12-22T11:06:35;5.73;;;1.60;;
14125;SDS011;7141;49.484;11.242;2023-12-22T11:09:03;6.63;;;1.33;;
14125;SDS011;7141;49.484;11.242;2023-12-22T11:11:39;3.83;;;1.33;;
14125;SDS011;7141;49.484;11.242;2023-12-22T11:14:05;2.80;;;1.63;;
14125;SDS011;7141;49.484;11.242;2023-12-22T11:16:32;6.93;;;2.10;;
14125;SDS011;7141;49.484;11.242;2023-12-22T11:18:59;4.43;;;1.60;;
14125;SDS011;7141;49.484;11.242;2023-12-22T11:21:25;3.93;;;1.70;;
14125;SDS011;7141;49.484;11.242;2023-12-22T11:23:51;7.73;;;2.50;;
14125;SDS011;7141;49.484;11.242;2023-12-22T11:26:18;7.47;;;2.10;;
14125;SDS011;7141;49.484;11.242;2023-12-22T11:28:45;5.53;;;1.80;;
14125;SDS011;7141;49.484;11.242;2023-12-22T11:31:11;4.90;;;1.70;;
14125;SDS011;7141;49.484;11.242;2023-12-22T11:33:39;4.53;;;1.83;;
14125;SDS011;7141;49.484;11.242;2023-12-22T11:36:06;10.77;;;2.20;;
14125;SDS011;7141;49.484;11.242;2023-12-22T11:38:32;6.10;;;1.50;;
14125;SDS011;7141;49.484;11.242;2023-12-22T11:40:59;5.23;;;1.60;;
14125;SDS011;7141;49.484;11.242;2023-12-22T11:43:25;5.17;;;1.97;;
14125;SDS011;7141;49.484;11.242;2023-12-22T11:45:52;5.53;;;1.60;;
14125;SDS011;7141;49.484;11.242;2023-12-22T11:48:18;6.33;;;1.80;;
14125;SDS011;7141;49.484;11.242;2023-12-22T11:50:45;5.87;;;2.07;;
14125;SDS011;7141;49.484;11.242;2023-12-22T11:53:18;6.70;;;1.90;;
14125;SDS011;7141;49.484;11.242;2023-12-22T11:55:57;3.53;;;1.80;;
14125;SDS011;7141;49.484;11.242;2023-12-22T12:03:41;4.17;;;1.80;;
14125;SDS011;7141;49.484;11.242;2023-12-22T12:08:43;8.93;;;2.13;;
14125;SDS011;7141;49.484;11.242;2023-12-22T12:11:09;5.90;;;2.20;;
14125;SDS011;7141;49.484;11.242;2023-12-22T12:13:36;6.03;;;2.00;;
14125;SDS011;7141;49.484;11.242;2023-12-22T12:16:05;9.10;;;2.23;;
14125;SDS011;7141;49.484;11.242;2023-12-22T12:18:32;7.93;;;2.33;;
14125;SDS011;7141;49.484;11.242;2023-12-22T12:20:58;8.50;;;2.60;;
14125;SDS011;7141;49.484;11.242;2023-12-22T12:23:25;6.80;;;2.40;;
14125;SDS011;7141;49.484;11.242;2023-12-22T12:25:52;10.20;;;2.60;;
14125;SDS011;7141;49.484;11.242;2023-12-22T12:28:18;8.83;;;2.50;;
14125;SDS011;7141;49.484;11.242;2023-12-22T12:30:54;6.20;;;2.53;;
14125;SDS011;7141;49.484;11.242;2023-12-22T12:33:23;9.60;;;2.83;;
14125;SDS011;7141;49.484;11.242;2023-12-22T12:35:50;14.53;;;2.70;;
14125;SDS011;7141;49.484;11.242;2023-12-22T12:38:18;8.10;;;2.27;;
14125;SDS011;7141;49.484;11.242;2023-12-22T12:40:45;9.10;;;2.40;;
14125;SDS011;7141;49.484;11.242;2023-12-22T12:43:12;13.40;;;3.17;;
14125;SDS011;7141;49.484;11.242;2023-12-22T12:45:38;9.57;;;2.73;;
14125;SDS011;7141;49.484;11.242;2023-12-22T12:48:04;15.03;;;3.90;;
14125;SDS011;7141;49.484;11.242;2023-12-22T12:50:30;15.03;;;4.10;;
14125;SDS011;7141;49.484;11.242;2023-12-22T12:52:56;12.27;;;2.80;;
14125;SDS011;7141;49.484;11.242;2023-12-22T12:55:23;14.80;;;3.60;;
14125;SDS011;7141;49.484;11.242;2023-12-22T12:57:53;16.13;;;3.60;;
14125;SDS011;7141;49.484;11.242;2023-12-22T13:00:29;14.83;;;2.97;;
14125;SDS011;7141;49.484;11.242;2023-12-22T13:02:55;20.00;;;3.63;;
14125;SDS011;7141;49.484;11.242;2023-12-22T13:05:24;15.93;;;3.63;;
14125;SDS011;7141;49.484;11.242;2023-12-22T13:07:51;17.60;;;4.47;;
14125;SDS011;7141;49.484;11.242;2023-12-22T13:10:24;17.90;;;3.70;;
14125;SDS011;7141;49.484;11.242;2023-12-22T13:12:52;13.97;;;3.30;;
14125;SDS011;7141;49.484;11.242;2023-12-22T13:15:19;19.90;;;4.43;;
14125;SDS011;7141;49.484;11.242;2023-12-22T13:17:46;16.57;;;4.07;;
14125;SDS011;7141;49.484;11.242;2023-12-22T13:20:12;19.17;;;3.80;;
14125;SDS011;7141;49.484;11.242;2023-12-22T13:22:39;11.97;;;3.40;;
14125;SDS011;7141;49.484;11.242;2023-12-22T13:25:05;12.83;;;3.40;;
14125;SDS011;7141;49.484;11.242;2023-12-22T13:27:31;10.87;;;3.30;;
14125;SDS011;7141;49.484;11.242;2023-12-22T13:29:57;15.17;;;3.00;;
14125;SDS011;7141;49.484;11.242;2023-12-22T13:32:23;14.67;;;3.47;;
14125;SDS011;7141;49.484;11.242;2023-12-22T13:34:50;11.77;;;3.30;;
14125;SDS011;7141;49.484;11.242;2023-12-22T13:37:16;11.23;;;2.80;;
14125;SDS011;7141;49.484;11.242;2023-12-22T13:39:42;14.90;;;3.47;;
14125;SDS011;7141;49.484;11.242;2023-12-22T13:42:18;13.13;;;3.03;;
14125;SDS011;7141;49.484;11.242;2023-12-22T13:44:45;16.90;;;3.73;;
14125;SDS011;7141;49.484;11.242;2023-12-22T13:47:14;13.83;;;3.20;;
14125;SDS011;7141;49.484;11.242;2023-12-22T13:49:41;12.53;;;4.13;;
14125;SDS011;7141;49.484;11.242;2023-12-22T13:52:07;9.90;;;2.47;;
14125;SDS011;7141;49.484;11.242;2023-12-22T13:54:33;10.77;;;3.10;;
14125;SDS011;7141;49.484;11.242;2023-12-22T13:56:59;9.47;;;2.93;;
14125;SDS011;7141;49.484;11.242;2023-12-22T13:59:30;7.43;;;2.83;;
14125;SDS011;7141;49.484;11.242;2023-12-22T14:01:57;7.03;;;2.10;;
14125;SDS011;7141;49.484;11.242;2023-12-22T14:04:22;9.37;;;2.30;;
14125;SDS011;7141;49.484;11.242;2023-12-22T14:06:49;8.60;;;2.37;;
14125;SDS011;7141;49.484;11.242;2023-12-22T14:09:15;8.63;;;2.83;;
14125;SDS011;7141;49.484;11.242;2023-12-22T14:11:44;5.53;;;2.07;;
14125;SDS011;7141;49.484;11.242;2023-12-22T14:14:10;7.67;;;2.10;;
14125;SDS011;7141;49.484;11.242;2023-12-22T14:16:37;6.77;;;2.13;;
14125;SDS011;7141;49.484;11.242;2023-12-22T14:19:03;7.13;;;2.30;;
14125;SDS011;7141;49.484;11.242;2023-12-22T14:21:28;6.37;;;2.23;;
14125;SDS011;7141;49.484;11.242;2023-12-22T14:23:54;4.73;;;1.73;;
14125;SDS011;7141;49.484;11.242;2023-12-22T14:26:20;9.77;;;1.93;;
14125;SDS011;7141;49.484;11.242;2023-12-22T14:28:46;5.57;;;1.90;;
14125;SDS011;7141;49.484;11.242;2023-12-22T14:31:16;8.83;;;2.30;;
14125;SDS011;7141;49.484;11.242;2023-12-22T14:33:42;7.47;;;2.53;;
14125;SDS011;7141;49.484;11.242;2023-12-22T14:36:08;8.53;;;2.40;;
14125;SDS011;7141;49.484;11.242;2023-12-22T14:38:34;8.33;;;2.00;;
14125;SDS011;7141;49.484;11.242;2023-12-22T14:41:00;12.00;;;2.53;;
14125;SDS011;7141;49.484;11.242;2023-12-22T14:43:26;7.20;;;3.30;;
14125;SDS011;7141;49.484;11.242;2023-12-22T14:45:52;7.97;;;1.93;;
14125;SDS011;7141;49.484;11.242;2023-12-22T14:48:18;5.80;;;2.40;;